Time;durP1;ratioP1;P1;durP2;ratioP2;P2;SDS_P1;SDS_P2;PMS_P1;PMS_P2;Temp;Humidity;BMP_temperature;BMP_pressure;BME280_temperature;BME280_humidity;BME280_pressure;Samples;Min_cycle;Max_cycle;Signal;HPM_P1;HPM_P2
2021/11/12 00:02:39;;;;;;;21.13;19.42;;;;;;;;;;4992547;28;20084;-46
2021/11/12 00:13:20;;;;;;;25.77;23.25;;;;;;;;;;4990938;28;20556;-46
2021/11/12 00:15:51;;;;;;;23.65;21.50;;;;;;;;;;4989915;28;20038;-47
2021/11/12 00:18:18;;;;;;;25.65;23.38;;;;;;;;;;4981782;28;20038;-45
2021/11/12 00:20:45;;;;;;;26.48;24.38;;;;;;;;;;4990542;28;20042;-44
2021/11/12 00:23:13;;;;;;;25.13;22.92;;;;;;;;;;4992047;28;20089;-44
2021/11/12 00:25:42;;;;;;;26.92;24.58;;;;;;;;;;4991662;28;20105;-45
2021/11/12 00:28:10;;;;;;;26.58;24.35;;;;;;;;;;4990982;28;20046;-44
2021/11/12 00:30:51;;;;;;;24.50;22.17;;;;;;;;;;4993274;28;20038;-45
2021/11/12 00:33:35;;;;;;;25.38;21.83;;;;;;;;;;4990995;28;20042;-45
2021/11/12 00:38:39;;;;;;;25.33;23.27;;;;;;;;;;4993619;28;20389;-44
2021/11/12 00:41:32;;;;;;;29.17;26.60;;;;;;;;;;4991078;28;20286;-45
2021/11/12 00:44:10;;;;;;;28.30;25.42;;;;;;;;;;4986301;28;20379;-45
2021/11/12 00:46:48;;;;;;;34.60;28.80;;;;;;;;;;4992673;28;20105;-47
2021/11/12 00:49:20;;;;;;;37.55;32.35;;;;;;;;;;4991308;28;20042;-47
2021/11/12 00:51:55;;;;;;;32.05;29.67;;;;;;;;;;4984250;28;20043;-44
2021/11/12 00:54:22;;;;;;;36.90;30.65;;;;;;;;;;4993269;28;20045;-44
2021/11/12 00:56:49;;;;;;;32.65;29.42;;;;;;;;;;4988501;28;20077;-47
2021/11/12 00:59:17;;;;;;;131.48;33.55;;;;;;;;;;4987484;28;20042;-45
2021/11/12 01:01:44;;;;;;;44.97;29.83;;;;;;;;;;4988292;28;20066;-45
2021/11/12 01:04:14;;;;;;;258.13;40.53;;;;;;;;;;4981307;28;20671;-44
2021/11/12 01:06:42;;;;;;;191.15;34.13;;;;;;;;;;4992756;28;20100;-45
2021/11/12 01:09:10;;;;;;;300.15;36.28;;;;;;;;;;4988514;28;20050;-45
2021/11/12 01:11:37;;;;;;;165.90;34.47;;;;;;;;;;4989920;28;20046;-44
2021/11/12 01:14:04;;;;;;;51.63;28.85;;;;;;;;;;4981961;28;20855;-44
2021/11/12 01:16:31;;;;;;;30.48;28.23;;;;;;;;;;4989172;28;20054;-44
2021/11/12 01:18:58;;;;;;;30.15;27.95;;;;;;;;;;4983822;28;20038;-45
2021/11/12 01:21:25;;;;;;;33.20;30.52;;;;;;;;;;4988643;28;20042;-45
2021/11/12 01:23:52;;;;;;;28.05;25.58;;;;;;;;;;4990079;28;20034;-44
2021/11/12 01:26:20;;;;;;;28.55;26.63;;;;;;;;;;4992297;28;20046;-44
2021/11/12 01:28:47;;;;;;;19.85;18.45;;;;;;;;;;4988901;28;20046;-44
2021/11/12 01:31:14;;;;;;;24.85;23.08;;;;;;;;;;4991838;28;20053;-45
2021/11/12 01:33:42;;;;;;;21.48;20.10;;;;;;;;;;4989447;28;20093;-46
2021/11/12 01:38:48;;;;;;;26.25;18.55;;;;;;;;;;4992446;28;20046;-44
2021/11/12 01:41:15;;;;;;;18.35;16.85;;;;;;;;;;4989907;28;20046;-44
2021/11/12 01:43:45;;;;;;;15.10;14.30;;;;;;;;;;4977979;28;20054;-45
2021/11/12 02:01:31;;;;;;;19.85;18.25;;;;;;;;;;4990139;28;20054;-45
2021/11/12 02:03:58;;;;;;;19.42;17.92;;;;;;;;;;4976853;28;20042;-47
2021/11/12 02:06:25;;;;;;;22.63;20.65;;;;;;;;;;4990722;28;20101;-44
2021/11/12 02:08:53;;;;;;;25.15;22.98;;;;;;;;;;4988723;28;20062;-45
2021/11/12 02:11:20;;;;;;;25.20;23.02;;;;;;;;;;4987493;28;20046;-45
2021/11/12 02:13:48;;;;;;;22.42;20.63;;;;;;;;;;4987660;28;20036;-45
2021/11/12 02:16:40;;;;;;;20.38;18.15;;;;;;;;;;4989808;28;20046;-44
2021/11/12 02:19:04;;;;;;;22.55;20.88;;;;;;;;;;4989261;28;20109;-44
2021/11/12 02:21:41;;;;;;;21.92;19.98;;;;;;;;;;4987191;28;20077;-45
2021/11/12 02:24:12;;;;;;;21.77;19.58;;;;;;;;;;4990297;28;20081;-44
2021/11/12 02:26:42;;;;;;;18.90;17.40;;;;;;;;;;4988817;28;20093;-44
2021/11/12 02:29:11;;;;;;;18.83;17.25;;;;;;;;;;4988193;28;20039;-44
2021/11/12 02:31:38;;;;;;;18.65;17.35;;;;;;;;;;4990940;28;20086;-44
2021/11/12 02:34:08;;;;;;;18.70;16.75;;;;;;;;;;4988782;28;20121;-44
2021/11/12 02:36:35;;;;;;;19.35;17.92;;;;;;;;;;4987818;28;20038;-44
2021/11/12 02:39:03;;;;;;;19.88;18.40;;;;;;;;;;4979498;28;20852;-44
2021/11/12 02:41:36;;;;;;;18.90;17.30;;;;;;;;;;4983691;28;20049;-45
2021/11/12 02:44:03;;;;;;;20.40;18.13;;;;;;;;;;4976507;28;20046;-44
2021/11/12 02:46:30;;;;;;;20.67;19.05;;;;;;;;;;4989564;28;20034;-46
2021/11/12 02:48:57;;;;;;;23.13;21.38;;;;;;;;;;4979396;28;20042;-44
2021/11/12 02:51:27;;;;;;;25.42;23.42;;;;;;;;;;4990450;28;20540;-44
2021/11/12 02:53:55;;;;;;;28.08;25.35;;;;;;;;;;4986489;28;20034;-46
2021/11/12 02:56:32;;;;;;;82.88;28.52;;;;;;;;;;4962830;28;20082;-44
2021/11/12 02:59:03;;;;;;;177.25;33.78;;;;;;;;;;4988953;28;20084;-44
2021/11/12 03:01:31;;;;;;;34.67;29.05;;;;;;;;;;4982253;28;20046;-45
2021/11/12 03:03:58;;;;;;;31.55;28.98;;;;;;;;;;4983891;28;20039;-46
2021/11/12 03:06:25;;;;;;;30.85;28.00;;;;;;;;;;4986565;28;20050;-44
2021/11/12 03:08:52;;;;;;;31.60;29.17;;;;;;;;;;4986805;28;20934;-46
2021/11/12 03:11:19;;;;;;;29.23;26.85;;;;;;;;;;4989483;28;20130;-45
2021/11/12 03:13:45;;;;;;;32.10;25.90;;;;;;;;;;4988469;28;20046;-45
2021/11/12 03:16:13;;;;;;;29.42;26.58;;;;;;;;;;4989791;28;20093;-45
2021/11/12 03:18:41;;;;;;;65.60;24.88;;;;;;;;;;4985336;28;20118;-45
2021/11/12 03:21:09;;;;;;;30.05;27.67;;;;;;;;;;4977043;28;20042;-45
2021/11/12 03:23:40;;;;;;;26.00;24.33;;;;;;;;;;4988597;28;20058;-45
2021/11/12 03:26:26;;;;;;;26.50;24.77;;;;;;;;;;4987287;28;20030;-45
2021/11/12 04:01:57;;;;;;;18.23;16.92;;;;;;;;;;4982229;28;20050;-44
2021/11/12 04:18:28;;;;;;;25.55;24.15;;;;;;;;;;4985687;28;20041;-47
2021/11/12 05:11:15;;;;;;;27.23;25.50;;;;;;;;;;4990888;28;20056;-48
2021/11/12 05:46:15;;;;;;;24.15;22.27;;;;;;;;;;4976848;28;20039;-44
2021/11/12 05:51:45;;;;;;;23.20;21.90;;;;;;;;;;4988567;28;20104;-45
2021/11/12 05:56:57;;;;;;;22.23;21.05;;;;;;;;;;4991489;28;19926;-46
2021/11/12 05:59:24;;;;;;;22.98;21.27;;;;;;;;;;4988396;28;20071;-44
2021/11/12 06:01:52;;;;;;;24.55;23.05;;;;;;;;;;4986484;28;20090;-46
2021/11/12 06:04:20;;;;;;;25.20;23.70;;;;;;;;;;4982924;28;20050;-45
2021/11/12 06:06:47;;;;;;;25.40;23.80;;;;;;;;;;4987504;28;20065;-45
2021/11/12 06:09:14;;;;;;;27.30;24.85;;;;;;;;;;4976586;28;20059;-45
2021/11/12 06:11:40;;;;;;;28.13;25.50;;;;;;;;;;4986104;28;20038;-47
2021/11/12 06:14:07;;;;;;;31.15;28.95;;;;;;;;;;4979259;28;20110;-44
2021/11/12 06:16:34;;;;;;;27.88;26.15;;;;;;;;;;4988828;28;20042;-45
2021/11/12 06:19:02;;;;;;;25.98;24.52;;;;;;;;;;4981499;28;20043;-44
2021/11/12 06:21:29;;;;;;;24.73;22.90;;;;;;;;;;4990541;28;20052;-44
2021/11/12 06:23:56;;;;;;;22.55;21.25;;;;;;;;;;4988778;28;20046;-44
2021/11/12 06:26:24;;;;;;;23.25;21.42;;;;;;;;;;4990097;28;20541;-44
2021/11/12 06:28:51;;;;;;;26.15;24.15;;;;;;;;;;4990915;28;20104;-47
2021/11/12 06:31:21;;;;;;;21.17;19.83;;;;;;;;;;4988427;28;20050;-45
2021/11/12 06:33:48;;;;;;;23.20;21.45;;;;;;;;;;4990523;28;20129;-45
2021/11/12 06:36:16;;;;;;;24.85;22.40;;;;;;;;;;4989309;28;20050;-45
2021/11/12 06:38:43;;;;;;;21.55;20.23;;;;;;;;;;4990377;28;20130;-44
2021/11/12 06:41:12;;;;;;;23.20;21.63;;;;;;;;;;4990813;28;20637;-46
2021/11/12 06:51:39;;;;;;;58.67;45.83;;;;;;;;;;4983896;28;20092;-45
2021/11/12 06:54:06;;;;;;;31.08;28.60;;;;;;;;;;4988564;28;20057;-44
2021/11/12 06:56:33;;;;;;;39.42;35.58;;;;;;;;;;4988745;28;20069;-44
2021/11/12 06:59:00;;;;;;;50.53;45.22;;;;;;;;;;4986812;28;20121;-45
2021/11/12 07:01:27;;;;;;;30.98;28.60;;;;;;;;;;4989946;28;20042;-44
2021/11/12 07:03:55;;;;;;;40.92;29.65;;;;;;;;;;4986802;28;20044;-45
2021/11/12 07:06:21;;;;;;;28.85;26.70;;;;;;;;;;4987244;28;20348;-44
2021/11/12 07:08:48;;;;;;;29.00;26.52;;;;;;;;;;4988113;28;20127;-44
2021/11/12 07:11:15;;;;;;;27.92;25.58;;;;;;;;;;4988214;28;20109;-44
2021/11/12 07:13:41;;;;;;;27.52;25.60;;;;;;;;;;4975871;28;20049;-45
2021/11/12 07:16:08;;;;;;;26.60;24.27;;;;;;;;;;4985683;28;20360;-45
2021/11/12 07:18:35;;;;;;;32.50;29.38;;;;;;;;;;4985860;28;20047;-44
2021/11/12 07:21:02;;;;;;;28.88;26.13;;;;;;;;;;4987215;28;20050;-45
2021/11/12 07:23:28;;;;;;;18.15;16.83;;;;;;;;;;4979313;28;20035;-44
2021/11/12 07:25:55;;;;;;;23.85;22.08;;;;;;;;;;4974890;28;20046;-45
2021/11/12 07:28:26;;;;;;;26.20;24.00;;;;;;;;;;4985435;28;20490;-45
2021/11/12 07:30:53;;;;;;;22.92;21.02;;;;;;;;;;4986569;28;20046;-44
2021/11/12 07:33:21;;;;;;;22.67;21.48;;;;;;;;;;4990093;28;20502;-44
2021/11/12 07:46:39;;;;;;;20.77;19.55;;;;;;;;;;4988730;28;20089;-44
2021/11/12 07:49:07;;;;;;;19.42;18.33;;;;;;;;;;4989325;28;20137;-43
2021/11/12 07:51:33;;;;;;;23.00;21.40;;;;;;;;;;4986738;28;20686;-44
2021/11/12 07:54:00;;;;;;;19.80;18.52;;;;;;;;;;4986606;28;20043;-45
2021/11/12 07:56:27;;;;;;;20.25;18.98;;;;;;;;;;4987842;28;20038;-45
2021/11/12 07:58:54;;;;;;;15.93;15.02;;;;;;;;;;4988206;28;20043;-46
2021/11/12 08:01:21;;;;;;;15.85;14.45;;;;;;;;;;4989047;28;20128;-44
2021/11/12 08:03:52;;;;;;;11.68;11.00;;;;;;;;;;4986853;28;20121;-44
2021/11/12 08:06:20;;;;;;;11.73;10.98;;;;;;;;;;4981990;28;20101;-44
2021/11/12 08:09:00;;;;;;;10.85;10.05;;;;;;;;;;4985382;28;20699;-44
2021/11/12 08:11:42;;;;;;;12.43;12.02;;;;;;;;;;4975502;28;20564;-44
2021/11/12 08:14:12;;;;;;;14.35;13.45;;;;;;;;;;4987816;28;20375;-44
2021/11/12 08:17:06;;;;;;;14.45;13.57;;;;;;;;;;4986141;28;20088;-44
2021/11/12 08:19:39;;;;;;;10.32;9.60;;;;;;;;;;4987012;28;20459;-44
2021/11/12 08:22:20;;;;;;;10.43;9.52;;;;;;;;;;4988927;28;20042;-45
2021/11/12 08:30:11;;;;;;;7.90;7.50;;;;;;;;;;4981361;28;20097;-45
2021/11/12 08:35:26;;;;;;;14.75;13.45;;;;;;;;;;4992028;28;20055;-45
2021/11/12 08:43:37;;;;;;;14.38;13.07;;;;;;;;;;4951614;29;20035;-44
2021/11/12 08:46:21;;;;;;;16.33;14.82;;;;;;;;;;4951362;29;20472;-45
2021/11/12 08:51:18;;;;;;;16.67;15.55;;;;;;;;;;4951322;29;20117;-44
2021/11/12 08:53:45;;;;;;;14.00;13.05;;;;;;;;;;4935189;29;20051;-45
2021/11/12 08:56:13;;;;;;;12.73;11.82;;;;;;;;;;4950944;29;20039;-44
2021/11/12 08:58:41;;;;;;;13.77;12.52;;;;;;;;;;4951338;29;20055;-44
2021/11/12 09:01:09;;;;;;;12.57;11.32;;;;;;;;;;4950500;29;20110;-45
2021/11/12 09:03:36;;;;;;;12.57;11.57;;;;;;;;;;4950638;29;20048;-44
2021/11/12 09:06:04;;;;;;;11.30;10.30;;;;;;;;;;4950563;29;20114;-44
2021/11/12 09:08:32;;;;;;;11.90;10.90;;;;;;;;;;4949190;29;20557;-45
2021/11/12 09:10:59;;;;;;;10.98;10.15;;;;;;;;;;4951006;29;20055;-44
2021/11/12 09:13:29;;;;;;;13.13;11.60;;;;;;;;;;4949250;28;20681;-44
2021/11/12 09:16:04;;;;;;;17.20;15.32;;;;;;;;;;4950866;28;20047;-44
2021/11/12 09:18:31;;;;;;;19.52;16.80;;;;;;;;;;4990477;28;20390;-46
2021/11/12 09:20:58;;;;;;;18.02;16.35;;;;;;;;;;4989181;28;20054;-45
2021/11/12 09:23:25;;;;;;;14.68;12.52;;;;;;;;;;4990755;28;20052;-45
2021/11/12 09:25:52;;;;;;;13.13;11.88;;;;;;;;;;4986465;28;20492;-44
2021/11/12 09:28:18;;;;;;;12.10;11.30;;;;;;;;;;4979767;28;20038;-46
2021/11/12 09:30:45;;;;;;;15.70;14.32;;;;;;;;;;4991858;28;20499;-44
2021/11/12 09:33:12;;;;;;;17.80;16.15;;;;;;;;;;4990276;28;20039;-45
2021/11/12 09:35:39;;;;;;;14.35;13.00;;;;;;;;;;4986668;28;20410;-48
2021/11/12 09:38:05;;;;;;;15.52;12.60;;;;;;;;;;4992186;28;20066;-47
2021/11/12 09:40:32;;;;;;;15.63;13.88;;;;;;;;;;4989368;28;20073;-48
2021/11/12 09:42:59;;;;;;;15.68;13.55;;;;;;;;;;4992119;28;20401;-46
2021/11/12 09:45:26;;;;;;;15.60;14.05;;;;;;;;;;4986422;28;20046;-45
2021/11/12 09:47:54;;;;;;;19.23;12.18;;;;;;;;;;4975414;28;20030;-45
2021/11/12 09:50:24;;;;;;;16.50;14.70;;;;;;;;;;4982427;28;20054;-48
2021/11/12 09:52:51;;;;;;;23.00;14.60;;;;;;;;;;4987763;28;20043;-45
2021/11/12 09:55:19;;;;;;;13.50;12.05;;;;;;;;;;4992099;28;20487;-48
2021/11/12 09:57:46;;;;;;;14.27;12.77;;;;;;;;;;4988751;28;20360;-46
2021/11/12 10:00:16;;;;;;;13.15;12.02;;;;;;;;;;4990183;28;20486;-46
2021/11/12 10:02:45;;;;;;;15.27;13.93;;;;;;;;;;4987919;28;20053;-44
2021/11/12 10:05:13;;;;;;;13.52;11.90;;;;;;;;;;4983157;28;20546;-47
2021/11/12 10:07:39;;;;;;;11.57;10.75;;;;;;;;;;4989517;28;20482;-47
2021/11/12 10:10:14;;;;;;;9.45;8.52;;;;;;;;;;4985246;28;20480;-44
2021/11/12 10:12:45;;;;;;;14.20;11.77;;;;;;;;;;4987507;28;20129;-49
2021/11/12 10:15:15;;;;;;;11.45;10.25;;;;;;;;;;4986184;28;20043;-48
2021/11/12 10:17:43;;;;;;;9.77;9.15;;;;;;;;;;4985576;28;20038;-47
2021/11/12 10:20:11;;;;;;;11.48;10.50;;;;;;;;;;4988910;28;20074;-45
2021/11/12 10:22:39;;;;;;;15.25;11.57;;;;;;;;;;4986224;28;20073;-49
2021/11/12 10:25:07;;;;;;;11.50;10.48;;;;;;;;;;4983964;28;20114;-48
2021/11/12 10:27:34;;;;;;;11.80;10.80;;;;;;;;;;4984746;28;20089;-46
2021/11/12 10:30:07;;;;;;;10.90;9.57;;;;;;;;;;4985203;28;20043;-47
2021/11/12 10:32:34;;;;;;;9.43;8.82;;;;;;;;;;4988819;28;20047;-47
2021/11/12 10:35:07;;;;;;;8.02;7.35;;;;;;;;;;4984561;28;20406;-46
2021/11/12 10:37:34;;;;;;;7.88;7.40;;;;;;;;;;4984773;28;20044;-48
2021/11/12 10:40:11;;;;;;;11.35;8.00;;;;;;;;;;4985237;28;20546;-46
2021/11/12 10:42:39;;;;;;;8.80;7.97;;;;;;;;;;4987267;28;20093;-48
2021/11/12 10:45:05;;;;;;;7.47;6.88;;;;;;;;;;4987729;28;20519;-46
2021/11/12 10:47:33;;;;;;;10.65;8.27;;;;;;;;;;4986627;28;20073;-46
2021/11/12 10:50:04;;;;;;;9.10;8.20;;;;;;;;;;4985152;28;20054;-48
2021/11/12 10:52:31;;;;;;;7.65;7.18;;;;;;;;;;4986534;28;20518;-48
2021/11/12 10:55:01;;;;;;;7.25;6.88;;;;;;;;;;4986694;28;20411;-45
2021/11/12 10:57:28;;;;;;;7.72;7.10;;;;;;;;;;4988725;28;20039;-49
2021/11/12 10:59:55;;;;;;;10.20;7.65;;;;;;;;;;4986444;28;20104;-46
2021/11/12 11:02:23;;;;;;;7.75;7.35;;;;;;;;;;4984886;28;20030;-50
2021/11/12 11:04:58;;;;;;;8.55;8.15;;;;;;;;;;4989337;28;20035;-50
2021/11/12 11:07:25;;;;;;;9.30;8.45;;;;;;;;;;4985784;28;20031;-49
2021/11/12 11:09:53;;;;;;;8.93;8.23;;;;;;;;;;4986027;28;20042;-49
2021/11/12 11:12:33;;;;;;;8.88;7.53;;;;;;;;;;4989025;28;20560;-46
2021/11/12 11:15:10;;;;;;;6.97;6.28;;;;;;;;;;4987131;28;20046;-46
2021/11/12 11:17:43;;;;;;;5.78;5.35;;;;;;;;;;4988033;28;20057;-44
2021/11/12 11:20:11;;;;;;;6.10;5.60;;;;;;;;;;4987303;28;20042;-45
2021/11/12 11:22:55;;;;;;;5.97;5.55;;;;;;;;;;4988162;28;20057;-45
2021/11/12 11:25:23;;;;;;;5.95;5.45;;;;;;;;;;4989870;28;20089;-45
2021/11/12 11:27:50;;;;;;;7.47;5.57;;;;;;;;;;4986125;28;20490;-45
2021/11/12 11:30:17;;;;;;;8.57;7.78;;;;;;;;;;4988765;28;20105;-45
2021/11/12 11:32:45;;;;;;;10.10;8.88;;;;;;;;;;4988415;28;20089;-45
2021/11/12 11:35:13;;;;;;;9.63;8.18;;;;;;;;;;4981735;28;20035;-45
2021/11/12 11:37:40;;;;;;;7.65;6.53;;;;;;;;;;4979099;28;20042;-46
2021/11/12 11:40:12;;;;;;;7.93;6.57;;;;;;;;;;4985295;28;20038;-45
2021/11/12 11:42:39;;;;;;;7.15;5.50;;;;;;;;;;4982166;28;20043;-46
2021/11/12 11:45:06;;;;;;;5.18;4.80;;;;;;;;;;4977755;28;20438;-46
2021/11/12 11:47:33;;;;;;;10.13;4.38;;;;;;;;;;4984821;28;20077;-45
2021/11/12 11:50:01;;;;;;;6.28;4.60;;;;;;;;;;4990291;28;20501;-45
2021/11/12 11:52:30;;;;;;;8.68;5.10;;;;;;;;;;4986579;28;20093;-45
2021/11/12 11:54:57;;;;;;;9.88;4.43;;;;;;;;;;4988524;28;20057;-45
2021/11/12 11:57:27;;;;;;;4.90;4.47;;;;;;;;;;4992830;28;20045;-45
2021/11/12 12:00:12;;;;;;;5.70;4.60;;;;;;;;;;4993233;28;20039;-45
2021/11/12 12:02:39;;;;;;;4.45;4.03;;;;;;;;;;4985290;28;20030;-45
2021/11/12 12:05:07;;;;;;;7.03;3.92;;;;;;;;;;4993571;28;20030;-46
2021/11/12 12:07:40;;;;;;;5.32;3.50;;;;;;;;;;4983829;28;20046;-47
2021/11/12 12:10:15;;;;;;;5.43;3.72;;;;;;;;;;4984726;28;20475;-47
2021/11/12 12:12:43;;;;;;;3.22;2.92;;;;;;;;;;4991851;28;20034;-47
2021/11/12 12:15:12;;;;;;;5.78;2.50;;;;;;;;;;4994866;28;20080;-46
2021/11/12 12:17:39;;;;;;;5.82;4.97;;;;;;;;;;4986873;28;20406;-46
2021/11/12 13:24:38;;;;;;;3.28;3.05;;;;;;;;;;4987015;28;20044;-46
2021/11/12 13:27:06;;;;;;;2.72;2.63;;;;;;;;;;4979158;28;20379;-49
2021/11/12 13:29:36;;;;;;;2.97;2.67;;;;;;;;;;4985470;28;20055;-46
2021/11/12 13:32:05;;;;;;;2.80;2.58;;;;;;;;;;4979038;28;20039;-45
2021/11/12 13:34:41;;;;;;;3.00;2.20;;;;;;;;;;4983459;28;20063;-47
2021/11/12 13:37:15;;;;;;;3.97;3.40;;;;;;;;;;4979969;28;20101;-49
2021/11/12 13:39:43;;;;;;;2.42;2.25;;;;;;;;;;4983203;28;20573;-48
2021/11/12 13:42:10;;;;;;;5.30;1.98;;;;;;;;;;4981992;28;20038;-47
2021/11/12 13:44:38;;;;;;;3.13;2.33;;;;;;;;;;4990652;28;20039;-48
2021/11/12 13:47:08;;;;;;;4.07;3.78;;;;;;;;;;4991409;28;20477;-50
2021/11/12 13:49:38;;;;;;;2.65;2.45;;;;;;;;;;4989141;28;20057;-47
2021/11/12 13:52:20;;;;;;;3.08;2.78;;;;;;;;;;4991638;28;20038;-46
2021/11/12 13:54:48;;;;;;;3.73;2.00;;;;;;;;;;4988761;28;20042;-47
2021/11/12 13:57:19;;;;;;;3.72;2.58;;;;;;;;;;4988965;28;20274;-48
2021/11/12 13:59:52;;;;;;;2.55;2.35;;;;;;;;;;4990502;28;20042;-48
2021/11/12 14:02:19;;;;;;;4.13;2.33;;;;;;;;;;4987448;28;20034;-46
2021/11/12 14:04:46;;;;;;;2.80;1.80;;;;;;;;;;4977893;28;20364;-47
2021/11/12 14:07:16;;;;;;;6.43;2.22;;;;;;;;;;4989753;28;20034;-48
2021/11/12 14:09:43;;;;;;;2.67;2.47;;;;;;;;;;4989969;28;20403;-45
2021/11/12 14:12:12;;;;;;;4.80;4.28;;;;;;;;;;4987900;28;20097;-47
2021/11/12 14:14:41;;;;;;;2.00;1.80;;;;;;;;;;4989614;28;20034;-46
2021/11/12 14:17:18;;;;;;;2.05;1.92;;;;;;;;;;4982007;28;20053;-48
2021/11/12 14:19:54;;;;;;;3.83;2.33;;;;;;;;;;4989763;28;20466;-46
2021/11/12 14:25:13;;;;;;;2.47;2.28;;;;;;;;;;4989326;28;20038;-46
2021/11/12 14:27:52;;;;;;;2.78;2.38;;;;;;;;;;4991326;28;20050;-46
2021/11/12 14:51:35;;;;;;;4.13;3.83;;;;;;;;;;4989333;28;20046;-46
2021/11/12 14:54:08;;;;;;;2.75;2.60;;;;;;;;;;4989152;28;20046;-48
2021/11/12 14:56:35;;;;;;;4.05;3.63;;;;;;;;;;4990619;28;20070;-50
2021/11/12 14:59:05;;;;;;;7.18;5.60;;;;;;;;;;4988115;28;20896;-49
2021/11/12 15:01:33;;;;;;;4.03;3.13;;;;;;;;;;4987992;28;20050;-47
2021/11/12 15:04:00;;;;;;;2.95;2.70;;;;;;;;;;4988281;28;20145;-46
2021/11/12 15:06:27;;;;;;;2.08;1.83;;;;;;;;;;4987365;28;20026;-46
2021/11/12 15:09:00;;;;;;;2.65;2.42;;;;;;;;;;4987102;28;20050;-45
2021/11/12 15:11:28;;;;;;;3.22;1.92;;;;;;;;;;4987758;28;20445;-46
2021/11/12 15:14:03;;;;;;;4.20;3.90;;;;;;;;;;4987942;28;20509;-46
2021/11/12 15:16:32;;;;;;;3.40;3.10;;;;;;;;;;4988822;28;20038;-47
2021/11/12 15:19:01;;;;;;;1.63;1.52;;;;;;;;;;4985734;28;20034;-47
2021/11/12 15:21:32;;;;;;;2.60;2.50;;;;;;;;;;4988693;28;20081;-49
2021/11/12 15:32:04;;;;;;;3.72;2.35;;;;;;;;;;4988724;28;20113;-47
2021/11/12 15:34:26;;;;;;;2.10;1.88;;;;;;;;;;4980144;28;20042;-48
2021/11/12 15:37:26;;;;;;;2.15;2.05;;;;;;;;;;4989341;28;20127;-46
2021/11/12 15:45:07;;;;;;;4.60;4.20;;;;;;;;;;4974586;28;20062;-46
2021/11/12 15:47:38;;;;;;;4.32;3.97;;;;;;;;;;4983400;28;20049;-47
2021/11/12 16:08:55;;;;;;;3.60;3.28;;;;;;;;;;4976851;28;20047;-45
2021/11/12 16:14:06;;;;;;;5.00;4.53;;;;;;;;;;4986558;28;20105;-47
2021/11/12 16:19:09;;;;;;;7.90;4.25;;;;;;;;;;4987111;28;21614;-46
2021/11/12 16:21:47;;;;;;;5.38;4.97;;;;;;;;;;4988317;28;20101;-46
2021/11/12 16:26:46;;;;;;;8.90;7.65;;;;;;;;;;4986497;28;20073;-46
2021/11/12 16:29:28;;;;;;;6.70;6.30;;;;;;;;;;4989215;28;20048;-47
2021/11/12 16:31:55;;;;;;;8.37;7.70;;;;;;;;;;4987808;28;20062;-45
2021/11/12 16:34:23;;;;;;;10.15;9.13;;;;;;;;;;4988127;28;20104;-45
2021/11/12 16:37:01;;;;;;;13.77;12.10;;;;;;;;;;4979627;28;20376;-47
2021/11/12 16:39:34;;;;;;;12.23;9.30;;;;;;;;;;4981567;28;20042;-45
2021/11/12 16:44:45;;;;;;;9.23;8.52;;;;;;;;;;4989620;28;20034;-46
2021/11/12 17:04:07;;;;;;;5.50;5.15;;;;;;;;;;4965275;28;20046;-48
2021/11/12 17:11:44;;;;;;;6.13;5.68;;;;;;;;;;4966636;28;20047;-46
2021/11/12 17:14:31;;;;;;;7.50;6.57;;;;;;;;;;4952514;28;20051;-46
2021/11/12 17:19:51;;;;;;;8.23;7.38;;;;;;;;;;4965461;28;20495;-47
2021/11/12 17:46:51;;;;;;;18.50;16.15;;;;;;;;;;4982599;28;20479;-48
2021/11/12 18:02:58;;;;;;;13.02;11.77;;;;;;;;;;4980815;28;20096;-49
2021/11/12 21:48:09;;;;;;;43.47;35.75;;;;;;;;;;4954358;28;20057;-44
2021/11/12 21:50:37;;;;;;;36.28;30.75;;;;;;;;;;4986526;28;20077;-44
2021/11/12 21:53:05;;;;;;;35.05;28.45;;;;;;;;;;4989848;28;20042;-44
2021/11/12 21:55:32;;;;;;;32.53;26.08;;;;;;;;;;4991579;28;20089;-44
2021/11/12 21:57:59;;;;;;;27.90;24.67;;;;;;;;;;4989037;28;20046;-45
2021/11/12 22:00:26;;;;;;;26.73;23.88;;;;;;;;;;4991191;28;20097;-43
2021/11/12 22:02:54;;;;;;;32.75;25.70;;;;;;;;;;4986994;28;20044;-43
2021/11/12 22:05:21;;;;;;;37.78;29.25;;;;;;;;;;4990054;28;20050;-43
2021/11/12 22:07:48;;;;;;;41.33;34.53;;;;;;;;;;4990028;28;20490;-43
2021/11/12 22:10:15;;;;;;;44.67;33.83;;;;;;;;;;4988910;28;20457;-43
2021/11/12 22:12:42;;;;;;;34.25;29.40;;;;;;;;;;4991379;28;20045;-44
2021/11/12 22:15:10;;;;;;;44.05;34.00;;;;;;;;;;4989787;28;20053;-43
2021/11/12 22:17:36;;;;;;;45.42;34.55;;;;;;;;;;4988461;28;20045;-43
2021/11/12 22:20:04;;;;;;;38.50;34.55;;;;;;;;;;4989484;28;20050;-44
2021/11/12 22:22:31;;;;;;;34.90;31.38;;;;;;;;;;4989141;28;20035;-44
2021/11/12 22:24:58;;;;;;;44.25;36.20;;;;;;;;;;4984684;28;20034;-44
2021/11/12 22:27:24;;;;;;;41.40;36.95;;;;;;;;;;4988645;28;20077;-44
2021/11/12 22:29:51;;;;;;;41.08;35.92;;;;;;;;;;4988970;28;20042;-44
2021/11/12 22:32:19;;;;;;;43.60;39.08;;;;;;;;;;4989162;28;20089;-44
2021/11/12 22:34:46;;;;;;;38.45;34.42;;;;;;;;;;4987613;28;20137;-44
2021/11/12 22:37:13;;;;;;;40.20;35.78;;;;;;;;;;4985388;28;20037;-44
2021/11/12 22:39:40;;;;;;;38.17;33.88;;;;;;;;;;4989832;28;20042;-44
2021/11/12 22:42:07;;;;;;;38.38;34.13;;;;;;;;;;4988625;28;20046;-44
2021/11/12 22:44:34;;;;;;;40.30;35.38;;;;;;;;;;4991230;28;20041;-44
2021/11/12 22:47:00;;;;;;;39.55;34.78;;;;;;;;;;4987746;28;20482;-44
2021/11/12 22:49:27;;;;;;;38.97;34.75;;;;;;;;;;4987955;28;20038;-43
2021/11/12 22:51:54;;;;;;;41.65;37.15;;;;;;;;;;4989527;28;20415;-44
2021/11/12 22:54:20;;;;;;;42.40;33.22;;;;;;;;;;4989083;28;20446;-45
2021/11/12 22:56:47;;;;;;;32.95;29.67;;;;;;;;;;4989636;28;20434;-44
2021/11/12 22:59:14;;;;;;;40.88;33.35;;;;;;;;;;4982274;28;20121;-45
2021/11/12 23:01:40;;;;;;;34.20;28.77;;;;;;;;;;4980012;28;20503;-47
2021/11/12 23:04:07;;;;;;;32.13;28.02;;;;;;;;;;4988368;28;20712;-45
2021/11/12 23:06:34;;;;;;;33.72;29.98;;;;;;;;;;4988001;28;20085;-47
2021/11/12 23:09:01;;;;;;;32.53;29.13;;;;;;;;;;4988669;28;20049;-47
2021/11/12 23:11:27;;;;;;;36.08;30.73;;;;;;;;;;4986011;28;20089;-44
2021/11/12 23:13:54;;;;;;;32.22;28.83;;;;;;;;;;4988115;28;20101;-45
2021/11/12 23:16:21;;;;;;;32.03;28.92;;;;;;;;;;4980578;28;20096;-47
2021/11/12 23:18:48;;;;;;;28.42;25.92;;;;;;;;;;4981819;28;20046;-47
2021/11/12 23:21:15;;;;;;;26.73;24.15;;;;;;;;;;4989024;28;20511;-44
2021/11/12 23:23:46;;;;;;;32.22;28.92;;;;;;;;;;4987761;28;20458;-45
2021/11/12 23:26:13;;;;;;;37.10;31.83;;;;;;;;;;4977381;28;20129;-46
2021/11/12 23:28:40;;;;;;;41.55;37.10;;;;;;;;;;4990306;28;20073;-47
2021/11/12 23:31:07;;;;;;;40.78;36.25;;;;;;;;;;4987620;28;20105;-47
2021/11/12 23:33:34;;;;;;;38.17;34.47;;;;;;;;;;4989707;28;20042;-45
2021/11/12 23:36:01;;;;;;;44.75;39.88;;;;;;;;;;4987409;28;20077;-47
2021/11/12 23:38:27;;;;;;;44.65;39.97;;;;;;;;;;4981514;28;20050;-48
2021/11/12 23:40:54;;;;;;;40.45;36.25;;;;;;;;;;4989660;28;20050;-48
2021/11/12 23:43:21;;;;;;;39.90;33.25;;;;;;;;;;4987427;28;20499;-46
2021/11/12 23:45:47;;;;;;;35.15;31.42;;;;;;;;;;4988780;28;20055;-47
2021/11/12 23:48:14;;;;;;;31.88;28.85;;;;;;;;;;4969171;28;20080;-44
2021/11/12 23:50:41;;;;;;;28.75;26.48;;;;;;;;;;4987008;28;20042;-44
2021/11/12 23:53:08;;;;;;;32.25;28.85;;;;;;;;;;4989092;28;20046;-47
2021/11/12 23:55:34;;;;;;;30.40;25.73;;;;;;;;;;4986876;28;20064;-46
2021/11/12 23:58:03;;;;;;;43.40;35.60;;;;;;;;;;4980273;28;20133;-49
